sensor_id;sensor_type;location;lat;lon;timestamp;temperature;humidity
43151;DHT22;28755;51.478;5.702;2023-12-07T00:00:05;1.80;99.90
43151;DHT22;28755;51.478;5.702;2023-12-07T00:02:30;1.80;99.90
43151;DHT22;28755;51.478;5.702;2023-12-07T00:04:56;1.90;99.90
43151;DHT22;28755;51.478;5.702;2023-12-07T00:07:21;1.70;99.90
43151;DHT22;28755;51.478;5.702;2023-12-07T00:09:47;1.70;99.90
43151;DHT22;28755;51.478;5.702;2023-12-07T00:12:13;1.70;99.90
43151;DHT22;28755;51.478;5.702;2023-12-07T00:14:38;1.60;99.90
43151;DHT22;28755;51.478;5.702;2023-12-07T00:17:04;1.60;99.90
43151;DHT22;28755;51.478;5.702;2023-12-07T00:19:29;1.60;99.90
43151;DHT22;28755;51.478;5.702;2023-12-07T00:21:55;1.60;99.90
43151;DHT22;28755;51.478;5.702;2023-12-07T00:24:20;1.50;99.90
43151;DHT22;28755;51.478;5.702;2023-12-07T00:26:46;1.40;99.90
43151;DHT22;28755;51.478;5.702;2023-12-07T00:29:12;1.40;99.90
43151;DHT22;28755;51.478;5.702;2023-12-07T00:31:37;1.50;99.90
43151;DHT22;28755;51.478;5.702;2023-12-07T00:34:03;1.40;99.90
43151;DHT22;28755;51.478;5.702;2023-12-07T00:36:29;1.30;99.90
43151;DHT22;28755;51.478;5.702;2023-12-07T00:38:54;1.30;99.90
43151;DHT22;28755;51.478;5.702;2023-12-07T00:41:20;1.30;99.90
43151;DHT22;28755;51.478;5.702;2023-12-07T00:43:47;1.30;99.90
43151;DHT22;28755;51.478;5.702;2023-12-07T00:46:13;1.30;99.90
43151;DHT22;28755;51.478;5.702;2023-12-07T00:48:39;1.20;99.90
43151;DHT22;28755;51.478;5.702;2023-12-07T00:51:05;1.30;99.90
43151;DHT22;28755;51.478;5.702;2023-12-07T00:53:31;1.30;99.90
43151;DHT22;28755;51.478;5.702;2023-12-07T00:55:57;1.30;99.90
43151;DHT22;28755;51.478;5.702;2023-12-07T00:58:23;1.50;99.90
43151;DHT22;28755;51.478;5.702;2023-12-07T01:00:48;1.40;99.90
43151;DHT22;28755;51.478;5.702;2023-12-07T01:03:14;1.40;99.90
43151;DHT22;28755;51.478;5.702;2023-12-07T01:05:40;1.40;99.90
43151;DHT22;28755;51.478;5.702;2023-12-07T01:08:05;1.40;99.90
43151;DHT22;28755;51.478;5.702;2023-12-07T01:10:31;1.40;99.90
43151;DHT22;28755;51.478;5.702;2023-12-07T01:12:57;1.40;99.90
43151;DHT22;28755;51.478;5.702;2023-12-07T01:15:23;1.40;99.90
43151;DHT22;28755;51.478;5.702;2023-12-07T01:17:48;1.40;99.90
43151;DHT22;28755;51.478;5.702;2023-12-07T01:20:14;1.30;99.90
43151;DHT22;28755;51.478;5.702;2023-12-07T01:22:40;1.30;99.90
43151;DHT22;28755;51.478;5.702;2023-12-07T01:25:11;1.40;99.90
43151;DHT22;28755;51.478;5.702;2023-12-07T01:27:36;1.30;99.90
43151;DHT22;28755;51.478;5.702;2023-12-07T01:30:02;1.20;99.90
43151;DHT22;28755;51.478;5.702;2023-12-07T01:32:29;1.20;99.90
43151;DHT22;28755;51.478;5.702;2023-12-07T01:34:55;1.20;99.90
43151;DHT22;28755;51.478;5.702;2023-12-07T01:37:20;1.30;99.90
43151;DHT22;28755;51.478;5.702;2023-12-07T01:39:46;1.20;99.90
43151;DHT22;28755;51.478;5.702;2023-12-07T01:42:12;1.20;99.90
43151;DHT22;28755;51.478;5.702;2023-12-07T01:44:38;1.20;99.90
43151;DHT22;28755;51.478;5.702;2023-12-07T01:47:04;1.10;99.90
43151;DHT22;28755;51.478;5.702;2023-12-07T01:49:31;1.00;99.90
43151;DHT22;28755;51.478;5.702;2023-12-07T01:51:57;1.10;99.90
43151;DHT22;28755;51.478;5.702;2023-12-07T01:54:23;1.10;99.90
43151;DHT22;28755;51.478;5.702;2023-12-07T01:56:51;1.10;99.90
43151;DHT22;28755;51.478;5.702;2023-12-07T01:59:17;1.20;99.90
43151;DHT22;28755;51.478;5.702;2023-12-07T02:01:43;1.20;99.90
43151;DHT22;28755;51.478;5.702;2023-12-07T02:04:10;1.10;99.90
43151;DHT22;28755;51.478;5.702;2023-12-07T02:06:36;1.20;99.90
43151;DHT22;28755;51.478;5.702;2023-12-07T02:09:02;1.20;99.90
43151;DHT22;28755;51.478;5.702;2023-12-07T02:11:28;1.10;99.90
43151;DHT22;28755;51.478;5.702;2023-12-07T02:13:53;1.20;99.90
43151;DHT22;28755;51.478;5.702;2023-12-07T02:16:43;1.20;99.90
43151;DHT22;28755;51.478;5.702;2023-12-07T02:22:04;1.30;99.90
43151;DHT22;28755;51.478;5.702;2023-12-07T02:24:33;1.30;99.90
43151;DHT22;28755;51.478;5.702;2023-12-07T02:27:02;1.30;99.90
43151;DHT22;28755;51.478;5.702;2023-12-07T02:29:28;1.40;99.90
43151;DHT22;28755;51.478;5.702;2023-12-07T02:31:54;1.40;99.90
43151;DHT22;28755;51.478;5.702;2023-12-07T02:34:19;1.40;99.90
43151;DHT22;28755;51.478;5.702;2023-12-07T02:36:46;1.30;99.90
43151;DHT22;28755;51.478;5.702;2023-12-07T02:39:14;1.30;99.90
43151;DHT22;28755;51.478;5.702;2023-12-07T02:41:40;1.40;99.90
43151;DHT22;28755;51.478;5.702;2023-12-07T02:44:07;1.40;99.90
43151;DHT22;28755;51.478;5.702;2023-12-07T02:46:33;1.30;99.90
43151;DHT22;28755;51.478;5.702;2023-12-07T02:48:59;1.30;99.90
43151;DHT22;28755;51.478;5.702;2023-12-07T02:51:24;1.20;99.90
43151;DHT22;28755;51.478;5.702;2023-12-07T02:53:50;1.20;99.90
43151;DHT22;28755;51.478;5.702;2023-12-07T02:56:15;1.10;99.90
43151;DHT22;28755;51.478;5.702;2023-12-07T02:58:41;1.10;99.90
43151;DHT22;28755;51.478;5.702;2023-12-07T03:01:07;1.10;99.90
43151;DHT22;28755;51.478;5.702;2023-12-07T03:03:33;1.00;99.90
43151;DHT22;28755;51.478;5.702;2023-12-07T03:05:59;1.00;99.90
43151;DHT22;28755;51.478;5.702;2023-12-07T03:08:24;0.90;99.90
43151;DHT22;28755;51.478;5.702;2023-12-07T03:10:50;1.00;99.90
43151;DHT22;28755;51.478;5.702;2023-12-07T03:13:15;0.90;99.90
43151;DHT22;28755;51.478;5.702;2023-12-07T03:15:41;0.90;99.90
43151;DHT22;28755;51.478;5.702;2023-12-07T03:18:06;0.90;99.90
43151;DHT22;28755;51.478;5.702;2023-12-07T03:20:33;0.90;99.90
43151;DHT22;28755;51.478;5.702;2023-12-07T03:22:59;1.00;99.90
43151;DHT22;28755;51.478;5.702;2023-12-07T03:25:25;0.90;99.90
43151;DHT22;28755;51.478;5.702;2023-12-07T03:27:50;0.80;99.90
43151;DHT22;28755;51.478;5.702;2023-12-07T03:30:16;0.80;99.90
43151;DHT22;28755;51.478;5.702;2023-12-07T03:32:42;0.80;99.90
43151;DHT22;28755;51.478;5.702;2023-12-07T03:35:08;0.70;99.90
43151;DHT22;28755;51.478;5.702;2023-12-07T03:37:33;0.80;99.90
43151;DHT22;28755;51.478;5.702;2023-12-07T03:39:59;0.80;99.90
43151;DHT22;28755;51.478;5.702;2023-12-07T03:42:24;0.80;99.90
43151;DHT22;28755;51.478;5.702;2023-12-07T03:44:50;0.70;99.90
43151;DHT22;28755;51.478;5.702;2023-12-07T03:47:15;0.80;99.90
43151;DHT22;28755;51.478;5.702;2023-12-07T03:49:41;0.80;99.90
43151;DHT22;28755;51.478;5.702;2023-12-07T03:52:07;0.90;99.90
43151;DHT22;28755;51.478;5.702;2023-12-07T03:54:33;0.80;99.90
43151;DHT22;28755;51.478;5.702;2023-12-07T03:56:58;0.70;99.90
43151;DHT22;28755;51.478;5.702;2023-12-07T03:59:24;0.70;99.90
43151;DHT22;28755;51.478;5.702;2023-12-07T04:01:49;0.70;99.90
43151;DHT22;28755;51.478;5.702;2023-12-07T04:04:15;0.60;99.90
43151;DHT22;28755;51.478;5.702;2023-12-07T04:06:41;0.60;99.90
43151;DHT22;28755;51.478;5.702;2023-12-07T04:09:06;0.60;99.90
43151;DHT22;28755;51.478;5.702;2023-12-07T04:11:32;0.60;99.90
43151;DHT22;28755;51.478;5.702;2023-12-07T04:13:58;0.60;99.90
43151;DHT22;28755;51.478;5.702;2023-12-07T04:16:24;0.60;99.90
43151;DHT22;28755;51.478;5.702;2023-12-07T04:18:51;0.60;99.90
43151;DHT22;28755;51.478;5.702;2023-12-07T04:21:17;0.60;99.90
43151;DHT22;28755;51.478;5.702;2023-12-07T04:23:42;0.60;99.90
43151;DHT22;28755;51.478;5.702;2023-12-07T04:26:08;0.60;99.90
43151;DHT22;28755;51.478;5.702;2023-12-07T04:28:33;0.70;99.90
43151;DHT22;28755;51.478;5.702;2023-12-07T04:30:59;0.60;99.90
43151;DHT22;28755;51.478;5.702;2023-12-07T04:33:24;0.60;99.90
43151;DHT22;28755;51.478;5.702;2023-12-07T04:35:50;0.60;99.90
43151;DHT22;28755;51.478;5.702;2023-12-07T04:38:16;0.60;99.90
43151;DHT22;28755;51.478;5.702;2023-12-07T04:40:41;0.60;99.90
43151;DHT22;28755;51.478;5.702;2023-12-07T04:43:07;0.60;99.90
43151;DHT22;28755;51.478;5.702;2023-12-07T04:45:33;0.70;99.90
43151;DHT22;28755;51.478;5.702;2023-12-07T04:47:58;0.70;99.90
43151;DHT22;28755;51.478;5.702;2023-12-07T04:50:25;0.60;99.90
43151;DHT22;28755;51.478;5.702;2023-12-07T04:52:51;0.60;99.90
43151;DHT22;28755;51.478;5.702;2023-12-07T04:55:16;0.60;99.90
43151;DHT22;28755;51.478;5.702;2023-12-07T04:57:42;0.60;99.90
43151;DHT22;28755;51.478;5.702;2023-12-07T05:00:08;0.70;99.90
43151;DHT22;28755;51.478;5.702;2023-12-07T05:02:38;0.70;99.90
43151;DHT22;28755;51.478;5.702;2023-12-07T05:05:04;0.60;99.90
43151;DHT22;28755;51.478;5.702;2023-12-07T05:07:30;0.70;99.90
43151;DHT22;28755;51.478;5.702;2023-12-07T05:09:56;0.70;99.90
43151;DHT22;28755;51.478;5.702;2023-12-07T05:12:21;0.70;99.90
43151;DHT22;28755;51.478;5.702;2023-12-07T05:14:47;0.70;99.90
43151;DHT22;28755;51.478;5.702;2023-12-07T05:17:13;0.80;99.90
43151;DHT22;28755;51.478;5.702;2023-12-07T05:19:39;0.70;99.90
43151;DHT22;28755;51.478;5.702;2023-12-07T05:22:04;0.70;99.90
43151;DHT22;28755;51.478;5.702;2023-12-07T05:24:30;0.70;99.90
43151;DHT22;28755;51.478;5.702;2023-12-07T05:26:57;0.70;99.90
43151;DHT22;28755;51.478;5.702;2023-12-07T05:29:23;0.70;99.90
43151;DHT22;28755;51.478;5.702;2023-12-07T05:31:49;0.80;99.90
43151;DHT22;28755;51.478;5.702;2023-12-07T05:34:16;0.70;99.90
43151;DHT22;28755;51.478;5.702;2023-12-07T05:36:41;0.70;99.90
43151;DHT22;28755;51.478;5.702;2023-12-07T05:39:07;0.90;99.90
43151;DHT22;28755;51.478;5.702;2023-12-07T05:41:33;0.80;99.90
43151;DHT22;28755;51.478;5.702;2023-12-07T05:43:59;0.80;99.90
43151;DHT22;28755;51.478;5.702;2023-12-07T05:46:24;0.90;99.90
43151;DHT22;28755;51.478;5.702;2023-12-07T05:48:50;0.90;99.90
43151;DHT22;28755;51.478;5.702;2023-12-07T05:51:17;1.00;99.90
43151;DHT22;28755;51.478;5.702;2023-12-07T05:53:43;1.00;99.90
43151;DHT22;28755;51.478;5.702;2023-12-07T05:56:09;1.00;99.90
43151;DHT22;28755;51.478;5.702;2023-12-07T05:58:35;1.00;99.90
43151;DHT22;28755;51.478;5.702;2023-12-07T06:01:01;1.20;99.90
43151;DHT22;28755;51.478;5.702;2023-12-07T06:03:28;1.00;99.90
43151;DHT22;28755;51.478;5.702;2023-12-07T06:05:54;1.10;99.90
43151;DHT22;28755;51.478;5.702;2023-12-07T06:08:19;1.00;99.90
43151;DHT22;28755;51.478;5.702;2023-12-07T06:10:45;1.10;99.90
43151;DHT22;28755;51.478;5.702;2023-12-07T06:13:12;0.90;99.90
43151;DHT22;28755;51.478;5.702;2023-12-07T06:15:37;1.00;99.90
43151;DHT22;28755;51.478;5.702;2023-12-07T06:18:03;1.00;99.90
43151;DHT22;28755;51.478;5.702;2023-12-07T06:20:29;1.00;99.90
43151;DHT22;28755;51.478;5.702;2023-12-07T06:22:54;1.00;99.90
43151;DHT22;28755;51.478;5.702;2023-12-07T06:25:20;1.10;99.90
43151;DHT22;28755;51.478;5.702;2023-12-07T06:27:46;1.00;99.90
43151;DHT22;28755;51.478;5.702;2023-12-07T06:30:12;1.10;99.90
43151;DHT22;28755;51.478;5.702;2023-12-07T06:32:37;1.10;99.90
43151;DHT22;28755;51.478;5.702;2023-12-07T06:35:03;1.10;99.90
43151;DHT22;28755;51.478;5.702;2023-12-07T06:37:32;1.10;99.90
43151;DHT22;28755;51.478;5.702;2023-12-07T06:39:58;1.10;99.90
43151;DHT22;28755;51.478;5.702;2023-12-07T06:42:25;1.10;99.90
43151;DHT22;28755;51.478;5.702;2023-12-07T06:44:51;1.10;99.90
43151;DHT22;28755;51.478;5.702;2023-12-07T06:47:17;1.20;99.90
43151;DHT22;28755;51.478;5.702;2023-12-07T06:49:43;1.20;99.90
43151;DHT22;28755;51.478;5.702;2023-12-07T06:52:09;1.20;99.90
43151;DHT22;28755;51.478;5.702;2023-12-07T06:54:36;1.10;99.90
43151;DHT22;28755;51.478;5.702;2023-12-07T06:57:02;1.10;99.90
43151;DHT22;28755;51.478;5.702;2023-12-07T06:59:28;1.20;99.90
43151;DHT22;28755;51.478;5.702;2023-12-07T07:01:54;1.20;99.90
43151;DHT22;28755;51.478;5.702;2023-12-07T07:04:19;1.30;99.90
43151;DHT22;28755;51.478;5.702;2023-12-07T07:06:45;1.30;99.90
43151;DHT22;28755;51.478;5.702;2023-12-07T07:09:10;1.20;99.90
43151;DHT22;28755;51.478;5.702;2023-12-07T07:11:38;1.30;99.90
43151;DHT22;28755;51.478;5.702;2023-12-07T07:14:04;1.30;99.90
43151;DHT22;28755;51.478;5.702;2023-12-07T07:16:30;1.30;99.90
43151;DHT22;28755;51.478;5.702;2023-12-07T07:18:55;1.60;99.90
43151;DHT22;28755;51.478;5.702;2023-12-07T07:21:21;1.40;99.90
43151;DHT22;28755;51.478;5.702;2023-12-07T07:23:46;1.30;99.90
43151;DHT22;28755;51.478;5.702;2023-12-07T07:26:12;1.30;99.90
43151;DHT22;28755;51.478;5.702;2023-12-07T07:28:42;1.40;99.90
43151;DHT22;28755;51.478;5.702;2023-12-07T07:31:08;1.40;99.90
43151;DHT22;28755;51.478;5.702;2023-12-07T07:33:33;1.40;99.90
43151;DHT22;28755;51.478;5.702;2023-12-07T07:35:59;1.40;99.90
43151;DHT22;28755;51.478;5.702;2023-12-07T07:38:25;1.30;99.90
43151;DHT22;28755;51.478;5.702;2023-12-07T07:40:50;1.40;99.90
43151;DHT22;28755;51.478;5.702;2023-12-07T07:43:16;1.40;99.90
43151;DHT22;28755;51.478;5.702;2023-12-07T07:45:41;1.30;99.90
43151;DHT22;28755;51.478;5.702;2023-12-07T07:48:07;1.30;99.90
43151;DHT22;28755;51.478;5.702;2023-12-07T07:50:33;1.40;99.90
43151;DHT22;28755;51.478;5.702;2023-12-07T07:53:00;1.40;99.90
43151;DHT22;28755;51.478;5.702;2023-12-07T07:55:26;1.50;99.90
43151;DHT22;28755;51.478;5.702;2023-12-07T07:57:52;1.40;99.90
43151;DHT22;28755;51.478;5.702;2023-12-07T08:00:19;1.50;99.90
43151;DHT22;28755;51.478;5.702;2023-12-07T08:02:45;1.50;99.90
43151;DHT22;28755;51.478;5.702;2023-12-07T08:05:11;1.50;99.90
43151;DHT22;28755;51.478;5.702;2023-12-07T08:07:36;1.70;99.90
43151;DHT22;28755;51.478;5.702;2023-12-07T08:10:02;1.60;99.90
43151;DHT22;28755;51.478;5.702;2023-12-07T08:12:29;1.60;99.90
43151;DHT22;28755;51.478;5.702;2023-12-07T08:14:54;1.60;99.90
43151;DHT22;28755;51.478;5.702;2023-12-07T08:17:20;1.60;99.90
43151;DHT22;28755;51.478;5.702;2023-12-07T08:19:46;1.60;99.90
43151;DHT22;28755;51.478;5.702;2023-12-07T08:22:12;1.60;99.90
43151;DHT22;28755;51.478;5.702;2023-12-07T08:24:41;1.60;99.90
43151;DHT22;28755;51.478;5.702;2023-12-07T08:27:07;1.70;99.90
43151;DHT22;28755;51.478;5.702;2023-12-07T08:29:33;1.70;99.90
43151;DHT22;28755;51.478;5.702;2023-12-07T08:31:59;1.80;99.90
43151;DHT22;28755;51.478;5.702;2023-12-07T08:34:25;1.70;99.90
43151;DHT22;28755;51.478;5.702;2023-12-07T08:36:50;1.80;99.90
43151;DHT22;28755;51.478;5.702;2023-12-07T08:39:16;2.00;99.90
43151;DHT22;28755;51.478;5.702;2023-12-07T08:41:42;1.90;99.90
43151;DHT22;28755;51.478;5.702;2023-12-07T08:44:07;2.00;99.90
43151;DHT22;28755;51.478;5.702;2023-12-07T08:46:33;2.10;99.90
43151;DHT22;28755;51.478;5.702;2023-12-07T08:48:59;2.00;99.90
43151;DHT22;28755;51.478;5.702;2023-12-07T08:51:25;2.00;99.90
43151;DHT22;28755;51.478;5.702;2023-12-07T08:53:50;2.00;99.90
43151;DHT22;28755;51.478;5.702;2023-12-07T08:56:17;2.00;99.90
43151;DHT22;28755;51.478;5.702;2023-12-07T08:58:43;2.10;99.90
43151;DHT22;28755;51.478;5.702;2023-12-07T09:01:09;2.10;99.90
43151;DHT22;28755;51.478;5.702;2023-12-07T09:03:36;2.10;99.90
43151;DHT22;28755;51.478;5.702;2023-12-07T09:06:02;2.20;99.90
43151;DHT22;28755;51.478;5.702;2023-12-07T09:08:28;2.20;99.90
43151;DHT22;28755;51.478;5.702;2023-12-07T09:10:54;2.30;99.90
43151;DHT22;28755;51.478;5.702;2023-12-07T09:13:19;2.30;99.90
43151;DHT22;28755;51.478;5.702;2023-12-07T09:15:45;2.30;99.90
43151;DHT22;28755;51.478;5.702;2023-12-07T09:18:11;2.50;99.90
43151;DHT22;28755;51.478;5.702;2023-12-07T09:20:37;2.40;99.90
43151;DHT22;28755;51.478;5.702;2023-12-07T09:23:03;2.40;99.90
43151;DHT22;28755;51.478;5.702;2023-12-07T09:25:29;2.40;99.90
43151;DHT22;28755;51.478;5.702;2023-12-07T09:27:55;2.50;99.90
43151;DHT22;28755;51.478;5.702;2023-12-07T09:30:21;2.50;99.90
43151;DHT22;28755;51.478;5.702;2023-12-07T09:32:47;2.50;99.90
43151;DHT22;28755;51.478;5.702;2023-12-07T09:35:13;2.60;99.90
43151;DHT22;28755;51.478;5.702;2023-12-07T09:37:45;2.70;99.90
43151;DHT22;28755;51.478;5.702;2023-12-07T09:40:17;2.80;99.90
43151;DHT22;28755;51.478;5.702;2023-12-07T09:42:43;2.80;99.90
43151;DHT22;28755;51.478;5.702;2023-12-07T09:45:09;2.80;99.90
43151;DHT22;28755;51.478;5.702;2023-12-07T09:47:37;3.20;99.90
43151;DHT22;28755;51.478;5.702;2023-12-07T09:50:06;3.90;99.90
43151;DHT22;28755;51.478;5.702;2023-12-07T09:52:34;4.50;99.90
43151;DHT22;28755;51.478;5.702;2023-12-07T09:55:01;5.90;99.90
43151;DHT22;28755;51.478;5.702;2023-12-07T09:57:28;7.80;99.90
43151;DHT22;28755;51.478;5.702;2023-12-07T09:59:55;8.90;99.90
43151;DHT22;28755;51.478;5.702;2023-12-07T10:02:21;8.50;99.90
43151;DHT22;28755;51.478;5.702;2023-12-07T10:04:47;7.50;99.90
43151;DHT22;28755;51.478;5.702;2023-12-07T10:07:13;7.10;99.90
43151;DHT22;28755;51.478;5.702;2023-12-07T10:09:40;6.60;99.90
43151;DHT22;28755;51.478;5.702;2023-12-07T10:12:06;6.50;99.90
43151;DHT22;28755;51.478;5.702;2023-12-07T10:14:32;6.50;99.90
43151;DHT22;28755;51.478;5.702;2023-12-07T10:16:59;6.80;99.90
43151;DHT22;28755;51.478;5.702;2023-12-07T10:19:26;6.70;99.90
43151;DHT22;28755;51.478;5.702;2023-12-07T10:21:53;6.50;99.90
43151;DHT22;28755;51.478;5.702;2023-12-07T10:24:24;6.40;99.90
43151;DHT22;28755;51.478;5.702;2023-12-07T10:26:52;6.20;99.90
43151;DHT22;28755;51.478;5.702;2023-12-07T10:29:18;5.90;99.90
43151;DHT22;28755;51.478;5.702;2023-12-07T10:31:44;5.90;99.90
43151;DHT22;28755;51.478;5.702;2023-12-07T10:34:12;5.90;99.90
43151;DHT22;28755;51.478;5.702;2023-12-07T10:36:38;6.00;99.90
43151;DHT22;28755;51.478;5.702;2023-12-07T10:39:03;5.70;99.90
43151;DHT22;28755;51.478;5.702;2023-12-07T10:41:33;5.50;99.90
43151;DHT22;28755;51.478;5.702;2023-12-07T10:44:00;5.60;99.90
43151;DHT22;28755;51.478;5.702;2023-12-07T10:46:27;5.70;99.90
43151;DHT22;28755;51.478;5.702;2023-12-07T10:49:00;6.00;99.90
43151;DHT22;28755;51.478;5.702;2023-12-07T10:51:29;6.90;99.90
43151;DHT22;28755;51.478;5.702;2023-12-07T10:53:57;8.40;99.90
43151;DHT22;28755;51.478;5.702;2023-12-07T10:56:44;9.70;99.90
43151;DHT22;28755;51.478;5.702;2023-12-07T10:59:12;10.20;99.90
43151;DHT22;28755;51.478;5.702;2023-12-07T11:01:42;10.50;99.90
43151;DHT22;28755;51.478;5.702;2023-12-07T11:04:12;11.30;99.90
43151;DHT22;28755;51.478;5.702;2023-12-07T11:06:42;12.30;99.90
43151;DHT22;28755;51.478;5.702;2023-12-07T11:09:13;13.60;99.90
43151;DHT22;28755;51.478;5.702;2023-12-07T11:11:47;14.80;99.90
43151;DHT22;28755;51.478;5.702;2023-12-07T11:14:15;15.70;99.90
43151;DHT22;28755;51.478;5.702;2023-12-07T11:16:47;14.50;99.90
43151;DHT22;28755;51.478;5.702;2023-12-07T11:22:09;12.40;99.90
43151;DHT22;28755;51.478;5.702;2023-12-07T11:24:35;13.00;99.90
43151;DHT22;28755;51.478;5.702;2023-12-07T11:27:01;13.20;99.90
43151;DHT22;28755;51.478;5.702;2023-12-07T11:29:31;13.10;99.90
43151;DHT22;28755;51.478;5.702;2023-12-07T11:32:04;13.00;99.90
43151;DHT22;28755;51.478;5.702;2023-12-07T11:34:40;12.90;99.90
43151;DHT22;28755;51.478;5.702;2023-12-07T11:37:07;13.30;99.90
43151;DHT22;28755;51.478;5.702;2023-12-07T11:39:38;13.50;99.90
43151;DHT22;28755;51.478;5.702;2023-12-07T11:42:31;13.20;99.90
43151;DHT22;28755;51.478;5.702;2023-12-07T11:44:56;13.00;99.90
43151;DHT22;28755;51.478;5.702;2023-12-07T11:47:22;13.20;99.90
43151;DHT22;28755;51.478;5.702;2023-12-07T11:49:48;13.50;99.90
43151;DHT22;28755;51.478;5.702;2023-12-07T11:52:19;13.60;99.90
43151;DHT22;28755;51.478;5.702;2023-12-07T11:54:45;13.60;99.90
43151;DHT22;28755;51.478;5.702;2023-12-07T11:57:13;13.60;99.90
43151;DHT22;28755;51.478;5.702;2023-12-07T11:59:39;13.80;99.90
43151;DHT22;28755;51.478;5.702;2023-12-07T12:02:05;13.70;99.90
43151;DHT22;28755;51.478;5.702;2023-12-07T12:04:30;14.00;99.90
43151;DHT22;28755;51.478;5.702;2023-12-07T12:06:56;13.70;99.90
43151;DHT22;28755;51.478;5.702;2023-12-07T12:09:24;13.40;99.90
43151;DHT22;28755;51.478;5.702;2023-12-07T12:11:50;13.50;99.90
43151;DHT22;28755;51.478;5.702;2023-12-07T12:14:17;12.80;99.90
43151;DHT22;28755;51.478;5.702;2023-12-07T12:16:43;12.70;99.90
43151;DHT22;28755;51.478;5.702;2023-12-07T12:19:09;13.30;99.90
43151;DHT22;28755;51.478;5.702;2023-12-07T12:21:38;13.80;99.90
43151;DHT22;28755;51.478;5.702;2023-12-07T12:24:07;14.10;99.90
43151;DHT22;28755;51.478;5.702;2023-12-07T12:26:34;14.20;99.90
43151;DHT22;28755;51.478;5.702;2023-12-07T12:29:01;14.10;99.90
43151;DHT22;28755;51.478;5.702;2023-12-07T12:31:28;13.80;99.90
43151;DHT22;28755;51.478;5.702;2023-12-07T12:33:54;14.20;99.90
43151;DHT22;28755;51.478;5.702;2023-12-07T12:36:20;14.70;99.90
43151;DHT22;28755;51.478;5.702;2023-12-07T12:38:51;14.50;99.90
43151;DHT22;28755;51.478;5.702;2023-12-07T12:41:23;13.70;99.90
43151;DHT22;28755;51.478;5.702;2023-12-07T12:43:52;12.60;99.90
43151;DHT22;28755;51.478;5.702;2023-12-07T12:46:18;12.20;99.90
43151;DHT22;28755;51.478;5.702;2023-12-07T12:48:54;11.80;99.90
43151;DHT22;28755;51.478;5.702;2023-12-07T12:51:21;11.30;99.90
43151;DHT22;28755;51.478;5.702;2023-12-07T12:53:48;11.30;99.90
43151;DHT22;28755;51.478;5.702;2023-12-07T12:56:15;11.60;99.90
43151;DHT22;28755;51.478;5.702;2023-12-07T12:58:40;12.40;99.90
43151;DHT22;28755;51.478;5.702;2023-12-07T13:01:06;12.00;99.90
43151;DHT22;28755;51.478;5.702;2023-12-07T13:03:32;11.30;99.90
43151;DHT22;28755;51.478;5.702;2023-12-07T13:05:58;10.50;99.90
43151;DHT22;28755;51.478;5.702;2023-12-07T13:08:24;9.80;99.90
43151;DHT22;28755;51.478;5.702;2023-12-07T13:10:50;9.10;99.90
43151;DHT22;28755;51.478;5.702;2023-12-07T13:13:15;8.90;99.90
43151;DHT22;28755;51.478;5.702;2023-12-07T13:15:41;9.20;99.90
43151;DHT22;28755;51.478;5.702;2023-12-07T13:18:07;9.50;99.90
43151;DHT22;28755;51.478;5.702;2023-12-07T13:20:34;9.60;99.90
43151;DHT22;28755;51.478;5.702;2023-12-07T13:23:00;9.20;99.90
43151;DHT22;28755;51.478;5.702;2023-12-07T13:25:26;8.90;99.90
43151;DHT22;28755;51.478;5.702;2023-12-07T13:27:52;8.50;99.90
43151;DHT22;28755;51.478;5.702;2023-12-07T13:30:18;8.10;99.90
43151;DHT22;28755;51.478;5.702;2023-12-07T13:32:43;8.10;99.90
43151;DHT22;28755;51.478;5.702;2023-12-07T13:35:09;7.80;99.90
43151;DHT22;28755;51.478;5.702;2023-12-07T13:37:35;7.70;99.90
43151;DHT22;28755;51.478;5.702;2023-12-07T13:40:02;7.40;99.90
43151;DHT22;28755;51.478;5.702;2023-12-07T13:42:30;7.20;99.90
43151;DHT22;28755;51.478;5.702;2023-12-07T13:44:59;7.00;99.90
43151;DHT22;28755;51.478;5.702;2023-12-07T13:47:26;6.90;99.90
43151;DHT22;28755;51.478;5.702;2023-12-07T13:49:55;6.50;99.90
43151;DHT22;28755;51.478;5.702;2023-12-07T13:52:22;6.30;99.90
43151;DHT22;28755;51.478;5.702;2023-12-07T13:54:47;6.30;99.90
43151;DHT22;28755;51.478;5.702;2023-12-07T13:57:14;6.20;99.90
43151;DHT22;28755;51.478;5.702;2023-12-07T13:59:39;6.20;99.90
43151;DHT22;28755;51.478;5.702;2023-12-07T14:02:06;6.20;99.90
43151;DHT22;28755;51.478;5.702;2023-12-07T14:04:32;6.20;99.90
43151;DHT22;28755;51.478;5.702;2023-12-07T14:07:15;6.10;99.90
43151;DHT22;28755;51.478;5.702;2023-12-07T14:09:44;6.10;99.90
43151;DHT22;28755;51.478;5.702;2023-12-07T14:12:10;6.10;99.90
43151;DHT22;28755;51.478;5.702;2023-12-07T14:14:40;6.10;99.90
43151;DHT22;28755;51.478;5.702;2023-12-07T14:17:06;6.00;99.90
43151;DHT22;28755;51.478;5.702;2023-12-07T14:19:32;5.90;99.90
43151;DHT22;28755;51.478;5.702;2023-12-07T14:21:58;5.90;99.90
43151;DHT22;28755;51.478;5.702;2023-12-07T14:24:24;5.80;99.90
43151;DHT22;28755;51.478;5.702;2023-12-07T14:26:50;5.80;99.90
43151;DHT22;28755;51.478;5.702;2023-12-07T14:29:16;5.80;99.90
43151;DHT22;28755;51.478;5.702;2023-12-07T14:31:45;5.70;99.90
43151;DHT22;28755;51.478;5.702;2023-12-07T14:34:10;5.70;99.90
43151;DHT22;28755;51.478;5.702;2023-12-07T14:36:36;5.60;99.90
43151;DHT22;28755;51.478;5.702;2023-12-07T14:39:04;5.50;99.90
43151;DHT22;28755;51.478;5.702;2023-12-07T14:41:33;5.50;99.90
43151;DHT22;28755;51.478;5.702;2023-12-07T14:43:58;5.40;99.90
43151;DHT22;28755;51.478;5.702;2023-12-07T14:46:24;5.40;99.90
43151;DHT22;28755;51.478;5.702;2023-12-07T14:48:50;5.30;99.90
43151;DHT22;28755;51.478;5.702;2023-12-07T14:51:19;5.20;99.90
43151;DHT22;28755;51.478;5.702;2023-12-07T14:53:48;5.20;99.90
43151;DHT22;28755;51.478;5.702;2023-12-07T14:56:13;5.10;99.90
43151;DHT22;28755;51.478;5.702;2023-12-07T14:58:39;5.20;99.90
43151;DHT22;28755;51.478;5.702;2023-12-07T15:01:08;5.00;99.90
43151;DHT22;28755;51.478;5.702;2023-12-07T15:03:34;5.00;99.90
43151;DHT22;28755;51.478;5.702;2023-12-07T15:06:00;5.00;99.90
43151;DHT22;28755;51.478;5.702;2023-12-07T15:08:26;4.90;99.90
43151;DHT22;28755;51.478;5.702;2023-12-07T15:10:52;4.90;99.90
43151;DHT22;28755;51.478;5.702;2023-12-07T15:13:18;4.80;99.90
43151;DHT22;28755;51.478;5.702;2023-12-07T15:15:44;4.90;99.90
43151;DHT22;28755;51.478;5.702;2023-12-07T15:18:10;4.60;99.90
43151;DHT22;28755;51.478;5.702;2023-12-07T15:20:36;4.70;99.90
43151;DHT22;28755;51.478;5.702;2023-12-07T15:23:02;4.70;99.90
43151;DHT22;28755;51.478;5.702;2023-12-07T15:25:28;4.70;99.90
43151;DHT22;28755;51.478;5.702;2023-12-07T15:27:54;4.50;99.90
43151;DHT22;28755;51.478;5.702;2023-12-07T15:30:20;4.60;99.90
43151;DHT22;28755;51.478;5.702;2023-12-07T15:32:49;4.60;99.90
43151;DHT22;28755;51.478;5.702;2023-12-07T15:35:15;4.50;99.90
43151;DHT22;28755;51.478;5.702;2023-12-07T15:37:41;4.70;99.90
43151;DHT22;28755;51.478;5.702;2023-12-07T15:40:07;4.40;99.90
43151;DHT22;28755;51.478;5.702;2023-12-07T15:42:39;4.40;99.90
43151;DHT22;28755;51.478;5.702;2023-12-07T15:45:05;4.40;99.90